Latest Weather Observations for Kowanyama

IDQ60801

Issued at 10:12 pm EST Sunday 27 September 2020 (issued every 10 minutes, with the page automatically refreshed every 10 minutes)

About weather observations | Map of weather stations | Latest weather observations for QLD | Other Formats
Station Details ID: 029038 Name: KOWANYAMA AIRPORT Lat: -15.48 Lon: 141.75 Height: 9.6 m
Data from the previous 72 hours. | See also: Recent months at Kowanyama
Date/Time
EST
Temp
°C
App
Temp
°C
Dew
Point
°C
Rel
Hum
%
Delta-T
°C
Wind Press
QNH
hPa
Press
MSL
hPa
Rain since
9am
mm
Dir  Spd
km/h
Gust
km/h
Spd
kts
Gust
kts
27/10:00pm 26.4 29.1 21.4 74 3.3 NNE 9 15 5 8 1014.3 1014.2 0.0
27/09:30pm 26.5 29.4 21.7 75 3.2 S 9 13 5 7 1013.5 1013.4 0.0
27/09:00pm 26.8 28.8 21.6 73 3.5 SSW 13 17 7 9 1012.9 1012.8 0.0
27/08:30pm 27.2 28.8 20.8 68 4.2 SW 13 17 7 9 1012.7 1012.6 0.0
27/08:00pm 27.7 29.2 20.5 65 4.7 SW 13 20 7 11 1012.5 1012.4 0.0
27/07:30pm 28.5 29.4 20.0 60 5.6 SW 15 22 8 12 1012.1 1012.0 0.0
27/07:00pm 29.3 30.1 19.0 53 6.7 WSW 13 20 7 11 1011.7 1011.6 0.0
27/06:30pm 30.6 30.5 18.7 49 7.7 WSW 17 22 9 12 1011.2 1011.1 0.0
27/06:00pm 32.2 32.0 18.4 44 8.9 WSW 17 24 9 13 1010.7 1010.6 0.0
27/05:30pm 36.8 33.4 7.8 17 16.4 ESE 15 20 8 11 1010.2 1010.1 0.0
27/05:00pm 37.1 32.8 7.1 16 16.8 SE 19 28 10 15 1010.1 1010.0 0.0
27/04:30pm 36.9 33.9 7.8 17 16.4 ESE 13 20 7 11 1010.2 1010.1 0.0
27/04:00pm 37.0 33.1 7.0 16 16.7 SE 17 30 9 16 1010.3 1010.2 0.0
27/03:30pm 37.6 33.2 7.5 16 17.0 SE 20 30 11 16 1010.5 1010.4 0.0
27/03:00pm 37.0 33.9 8.8 18 16.2 E 15 28 8 15 1010.7 1010.6 0.0
27/02:30pm 36.9 33.2 9.5 19 15.9 E 19 33 10 18 1011.2 1011.1 0.0
27/02:00pm 36.5 32.5 8.4 18 16.0 E 19 32 10 17 1011.7 1011.6 0.0
27/01:30pm 36.0 31.9 11.6 23 14.5 SE 24 37 13 20 1012.1 1012.0 0.0
27/01:00pm 35.2 32.5 12.8 26 13.5 ENE 19 32 10 17 1012.7 1012.6 0.0
27/12:30pm 35.0 32.8 13.2 27 13.2 E 17 28 9 15 1013.1 1013.0 0.0
27/12:00pm 33.7 30.9 12.7 28 12.6 E 19 32 10 17 1013.7 1013.6 0.0
27/11:30am 33.2 32.1 14.3 32 11.6 E 13 24 7 13 1014.3 1014.2 0.0
27/11:00am 31.6 30.2 15.5 37 10.0 E 17 33 9 18 1014.8 1014.7 0.0
27/10:30am 31.4 30.8 16.6 41 9.3 E 15 20 8 11 1015.3 1015.2 0.0
27/10:00am 29.9 28.6 16.7 45 8.3 E 19 30 10 16 1015.5 1015.4 0.0
27/09:30am 28.9 28.1 17.1 49 7.4 ENE 17 26 9 14 1015.6 1015.5 0.0
27/09:00am 27.8 26.8 17.6 53 6.4 ENE 19 26 10 14 1015.5 1015.4 0.0
27/08:30am 26.7 26.4 18.3 60 5.3 ENE 17 30 9 16 1015.4 1015.3 0.0
27/08:00am 25.9 26.0 18.3 63 4.8 ENE 15 26 8 14 1015.1 1015.0 0.0
27/07:30am 25.2 26.6 18.6 67 4.2 E 9 15 5 8 1014.9 1014.8 0.0
27/07:00am 24.1 25.8 18.5 71 3.5 ENE 7 9 4 5 1014.4 1014.3 0.0
27/06:30am 23.1 24.8 18.6 76 2.8 ENE 7 11 4 6 1014.0 1013.9 0.0
27/06:00am 22.8 24.8 18.8 78 2.5 NE 6 9 3 5 1013.8 1013.7 0.0
27/05:30am 23.3 26.5 18.8 76 2.8 CALM 0 6 0 3 1013.6 1013.5 0.0
27/05:00am 23.6 25.8 19.3 77 2.7 ENE 6 9 3 5 1013.2 1013.1 0.0
27/04:30am 24.1 26.3 19.6 76 2.9 ENE 7 9 4 5 1013.0 1012.9 0.0
27/04:00am 24.2 26.5 19.9 77 2.8 ENE 7 11 4 6 1013.2 1013.1 0.0
27/03:30am 24.3 28.0 22.2 88 1.4 ESE 6 7 3 4 1013.0 1012.9 0.0
27/03:00am 24.2 27.7 21.9 87 1.5 ESE 6 7 3 4 1013.0 1012.9 0.0
27/02:30am 24.9 28.8 22.6 87 1.5 ESE 6 9 3 5 1013.2 1013.1 0.0
27/02:00am 24.4 29.1 21.9 86 1.7 CALM 0 6 0 3 1012.9 1012.8 0.0
27/01:31am 24.9 29.6 22.0 84 1.9 CALM 0 0 0 0 1012.9 1012.8 0.0
27/01:30am 24.9 29.5 21.8 83 2.1 CALM 0 0 0 0 1012.9 1012.8 0.0
27/01:12am 25.2 30.1 22.3 84 1.9 CALM 0 0 0 0 1013.1 1013.0 0.0
27/01:00am 25.5 30.4 22.4 83 2.1 CALM 0 0 0 0 1013.2 1013.1 0.0
27/12:30am 25.9 29.7 22.4 81 2.4 NE 6 9 3 5 1013.3 1013.2 0.0
27/12:18am 26.1 29.4 22.6 81 2.4 NE 9 17 5 9 1013.2 1013.1 0.0
27/12:00am 26.1 29.0 23.2 84 2.0 ENE 13 24 7 13 1013.5 1013.4 0.0
 
Date/Time
EST
Temp
°C
App
Temp
°C
Dew
Point
°C
Rel
Hum
%
Delta-T
°C
Wind Press
QNH
hPa
Press
MSL
hPa
Rain since
9am
mm
Dir  Spd
km/h
Gust
km/h
Spd
kts
Gust
kts
26/11:50pm 25.7 28.8 23.6 88 1.4 ENE 13 19 7 10 1013.6 1013.5 0.0
26/11:30pm 25.0 28.6 23.1 89 1.3 SSW 9 13 5 7 1012.6 1012.5 0.0
26/11:00pm 25.2 29.2 23.1 88 1.4 SSW 7 9 4 5 1012.6 1012.5 0.0
26/10:30pm 25.5 29.6 23.2 87 1.6 SW 7 11 4 6 1012.6 1012.5 0.0
26/10:00pm 25.8 29.4 23.1 85 1.8 SW 9 13 5 7 1012.5 1012.4 0.0
26/09:30pm 26.1 29.3 23.0 83 2.1 SW 11 13 6 7 1012.3 1012.2 0.0
26/09:00pm 26.4 29.5 22.9 81 2.4 SW 11 15 6 8 1012.1 1012.0 0.0
26/08:30pm 26.7 29.4 22.8 79 2.6 SW 13 17 7 9 1011.8 1011.7 0.0
26/08:00pm 27.1 30.0 22.5 76 3.1 WSW 11 15 6 8 1011.5 1011.4 0.0
26/07:30pm 27.5 29.8 22.0 72 3.7 WSW 13 17 7 9 1011.0 1010.9 0.0
26/07:00pm 28.3 30.2 21.3 65 4.7 WSW 13 17 7 9 1010.7 1010.6 0.0
26/06:30pm 29.3 31.2 21.3 62 5.3 W 13 19 7 10 1010.3 1010.2 0.0
26/06:00pm 30.7 31.8 21.2 57 6.4 W 17 22 9 12 1009.9 1009.8 0.0
26/05:30pm 32.1 32.5 20.7 51 7.6 W 19 24 10 13 1009.7 1009.6 0.0
26/05:00pm 33.1 33.2 20.3 47 8.5 W 20 26 11 14 1009.4 1009.3 0.0
26/04:30pm 33.8 33.8 20.2 44 9.1 W 20 32 11 17 1009.4 1009.3 0.0
26/04:00pm 34.5 33.7 18.5 38 10.5 W 20 26 11 14 1009.6 1009.5 0.0
26/03:30pm 34.7 34.8 19.1 39 10.3 WSW 17 26 9 14 1009.6 1009.5 0.0
26/03:00pm 36.9 34.0 9.5 19 15.9 SSE 15 24 8 13 1009.9 1009.8 0.0
26/02:30pm 37.0 34.9 11.1 21 15.4 SSW 13 26 7 14 1010.3 1010.2 0.0
26/02:00pm 36.6 35.1 10.7 21 15.3 ESE 9 20 5 11 1010.8 1010.7 0.0
26/01:30pm 36.3 33.3 10.5 21 15.1 ESE 17 28 9 15 1011.4 1011.3 0.0
26/01:00pm 36.2 34.1 11.1 22 14.8 SE 13 24 7 13 1012.1 1012.0 0.0
26/12:30pm 35.4 32.0 10.4 22 14.6 SSE 19 24 10 13 1012.8 1012.7 0.0
26/12:00pm 34.5 33.5 13.3 27 12.9 S 11 22 6 12 1013.4 1013.3 0.0
26/11:30am 33.6 32.4 14.1 30 11.9 ESE 13 24 7 13 1014.0 1013.9 0.0
26/11:00am 32.6 32.6 15.1 34 10.8 NNE 9 15 5 8 1014.4 1014.3 0.0
26/10:30am 31.1 31.8 17.0 42 8.9 N 9 20 5 11 1014.7 1014.6 0.0
26/10:00am 30.1 31.4 18.5 49 7.5 N 9 15 5 8 1014.9 1014.8 0.0
26/09:30am 29.4 31.1 19.4 55 6.5 NE 9 15 5 8 1015.1 1015.0 0.0
26/09:00am 28.6 30.6 19.2 56 6.1 NE 7 11 4 6 1015.1 1015.0 0.0
26/08:30am 27.2 29.0 18.8 60 5.4 NNE 7 11 4 6 1014.9 1014.8 0.0
26/08:00am 25.7 26.8 18.9 66 4.3 NE 11 17 6 9 1014.4 1014.3 0.0
26/07:30am 24.9 26.8 19.7 73 3.4 NE 9 13 5 7 1014.0 1013.9 0.0
26/07:00am 23.4 26.0 20.5 84 1.9 NE 7 9 4 5 1013.3 1013.2 0.0
26/06:30am 22.6 25.7 21.1 91 1.0 ENE 6 7 3 4 1013.1 1013.0 0.0
26/06:00am 22.8 26.0 21.3 91 1.0 ENE 6 7 3 4 1012.7 1012.6 0.0
26/05:30am 22.6 25.7 21.1 91 1.0 ENE 6 7 3 4 1012.3 1012.2 0.0
26/05:00am 22.9 27.3 21.4 91 1.0 CALM 0 0 0 0 1012.2 1012.1 0.0
26/04:30am 23.2 26.9 21.5 90 1.1 E 4 7 2 4 1012.1 1012.0 0.0
26/04:00am 23.2 27.1 21.1 88 1.4 NNW 2 9 1 5 1011.9 1011.8 0.0
26/03:30am 23.6 26.8 21.7 89 1.3 NNE 7 9 4 5 1011.8 1011.7 0.0
26/03:00am 23.7 27.8 21.6 88 1.4 NE 2 7 1 4 1012.2 1012.1 0.0
26/02:30am 24.3 27.8 21.8 86 1.7 E 6 9 3 5 1012.4 1012.3 0.0
26/02:00am 24.6 27.8 21.7 84 1.9 ENE 7 9 4 5 1012.5 1012.4 0.0
26/01:30am 24.5 27.9 22.0 86 1.7 SW 7 19 4 10 1012.8 1012.7 0.0
26/01:00am 24.5 28.7 21.8 85 1.8 N 2 6 1 3 1012.8 1012.7 0.0
26/12:30am 24.8 28.3 21.9 84 1.9 NNE 6 7 3 4 1012.9 1012.8 0.0
26/12:00am 25.0 28.6 22.1 84 1.9 NNE 6 9 3 5 1012.9 1012.8 0.0
 
Date/Time
EST
Temp
°C
App
Temp
°C
Dew
Point
°C
Rel
Hum
%
Delta-T
°C
Wind Press
QNH
hPa
Press
MSL
hPa
Rain since
9am
mm
Dir  Spd
km/h
Gust
km/h
Spd
kts
Gust
kts
25/11:45pm 25.2 28.8 22.1 83 2.1 NE 6 9 3 5 1013.0 1012.9 0.0
25/11:30pm 25.4 29.0 22.1 82 2.2 NNE 6 9 3 5 1012.8 1012.7 0.0
25/11:00pm 25.5 28.6 22.2 82 2.2 NNE 9 13 5 7 1012.7 1012.6 0.0
25/10:41pm 25.4 28.6 22.3 83 2.1 NNE 9 13 5 7 1012.5 1012.4 0.0
25/10:30pm 25.3 28.0 22.2 83 2.1 NE 11 19 6 10 1012.5 1012.4 0.0
25/10:00pm 25.3 28.7 22.0 82 2.2 SW 7 9 4 5 1011.6 1011.5 0.0
25/09:30pm 25.7 28.8 22.2 81 2.3 WSW 9 13 5 7 1011.6 1011.5 0.0
25/09:00pm 25.8 28.8 21.9 79 2.6 WSW 9 13 5 7 1011.6 1011.5 0.0
25/08:30pm 26.0 28.6 21.9 78 2.7 WSW 11 15 6 8 1011.4 1011.3 0.0
25/08:00pm 26.2 28.5 22.1 78 2.7 WSW 13 17 7 9 1011.2 1011.1 0.0
25/07:30pm 26.3 27.7 21.9 77 2.9 W 17 19 9 10 1010.9 1010.8 0.0
25/07:00pm 26.7 28.0 21.7 74 3.3 W 17 24 9 13 1010.6 1010.5 0.0
25/06:30pm 27.4 27.9 21.2 69 4.1 W 20 26 11 14 1010.4 1010.3 0.0
25/06:00pm 28.5 28.8 20.8 63 5.1 W 20 28 11 15 1010.0 1009.9 0.0
25/05:30pm 29.5 29.1 20.1 57 6.2 W 22 28 12 15 1009.6 1009.5 0.0
25/05:00pm 30.6 30.3 19.6 51 7.2 W 20 30 11 16 1009.4 1009.3 0.0
25/04:30pm 32.0 31.6 19.3 47 8.3 W 20 28 11 15 1009.2 1009.1 0.0
25/04:00pm 33.3 32.4 18.3 41 9.7 WNW 20 28 11 15 1008.9 1008.8 0.0
25/03:30pm 34.0 33.2 18.5 40 10.1 WNW 20 28 11 15 1009.0 1008.9 0.0
25/03:00pm 34.2 32.7 17.8 37 10.6 WNW 22 30 12 16 1009.2 1009.1 0.0
25/02:30pm 34.4 33.1 17.2 36 11.0 WNW 20 32 11 17 1009.3 1009.2 0.0
25/02:00pm 35.0 35.6 16.8 34 11.6 N 9 17 5 9 1009.7 1009.6 0.0
25/01:30pm 34.5 33.3 13.9 29 12.6 WNW 13 22 7 12 1010.4 1010.3 0.0
25/01:00pm 34.5 33.3 12.8 27 13.1 WSW 11 17 6 9 1010.9 1010.8 0.0
25/12:30pm 33.8 33.5 12.7 27 12.6 WSW 6 13 3 7 1011.4 1011.3 0.0
25/12:00pm 33.0 31.9 13.1 30 12.0 NNE 11 19 6 10 1012.0 1011.9 0.0
25/11:30am 32.3 31.7 13.5 32 11.3 NE 9 13 5 7 1012.4 1012.3 0.0
25/11:00am 31.7 31.0 14.4 35 10.6 N 11 19 6 10 1012.9 1012.8 0.0
25/10:30am 30.7 30.2 14.8 38 9.7 NNW 11 20 6 11 1013.1 1013.0 0.0
25/10:00am 30.0 29.9 14.9 39 9.2 NNE 9 20 5 11 1013.5 1013.4 0.0
25/09:30am 28.6 27.7 14.8 43 8.4 NE 13 20 7 11 1013.5 1013.4 0.0
25/09:00am 27.7 26.9 16.0 49 7.2 N 15 22 8 12 1013.3 1013.2 0.0
25/08:30am 26.3 26.1 16.8 56 5.9 NNE 13 20 7 11 1013.2 1013.1 0.0
25/08:00am 26.1 26.6 17.5 59 5.4 NE 11 19 6 10 1013.0 1012.9 0.0
25/07:30am 25.0 25.0 18.0 65 4.4 NNE 15 24 8 13 1012.6 1012.5 0.0
25/07:00am 24.3 24.6 18.0 68 4.0 NNE 13 19 7 10 1012.2 1012.1 0.0
25/06:34am 24.1 25.5 19.6 76 2.9 NE 11 15 6 8 1012.2 1012.1 0.0
25/06:30am 24.1 25.7 20.0 78 2.6 NNE 11 15 6 8 1012.2 1012.1 0.0
25/06:16am 24.0 26.2 21.1 84 1.9 NNE 11 17 6 9 1012.1 1012.0 0.0
25/06:00am 23.8 26.8 21.9 89 1.3 NNE 9 13 5 7 1012.0 1011.9 0.0
25/05:30am 23.9 27.2 21.8 88 1.4 NNE 7 11 4 6 1011.6 1011.5 0.0
25/05:00am 23.9 27.2 21.8 88 1.4 NE 7 9 4 5 1011.4 1011.3 0.0
25/04:30am 24.2 26.9 22.1 88 1.4 NNE 11 19 6 10 1011.1 1011.0 0.0
25/04:00am 23.8 27.0 21.3 86 1.6 W 6 9 3 5 1010.7 1010.6 0.0
25/03:30am 24.0 28.3 21.1 84 1.9 CALM 0 0 0 0 1011.1 1011.0 0.0
25/03:00am 24.0 27.4 20.9 83 2.0 NE 4 6 2 3 1011.4 1011.3 0.0
25/02:30am 24.3 27.6 21.4 84 1.9 NNE 6 7 3 4 1011.6 1011.5 0.0
25/02:00am 24.3 28.5 21.0 82 2.2 CALM 0 7 0 4 1011.7 1011.6 0.0
25/01:30am 24.6 27.8 21.3 82 2.2 NNE 6 9 3 5 1011.7 1011.6 0.0
25/01:00am 24.4 27.3 21.1 82 2.2 NNE 7 9 4 5 1011.9 1011.8 0.0
25/12:30am 24.7 27.9 21.2 81 2.3 NNE 6 9 3 5 1012.2 1012.1 0.0
25/12:00am 25.0 28.0 21.3 80 2.4 NNE 7 13 4 7 1012.2 1012.1 0.0
 
Date/Time
EST
Temp
°C
App
Temp
°C
Dew
Point
°C
Rel
Hum
%
Delta-T
°C
Wind Press
QNH
hPa
Press
MSL
hPa
Rain since
9am
mm
Dir  Spd
km/h
Gust
km/h
Spd
kts
Gust
kts
24/11:30pm 24.9 26.8 21.4 81 2.3 NNE 13 20 7 11 1012.2 1012.1 0.0
24/11:00pm 25.0 28.1 21.1 79 2.6 SW 6 7 3 4 1011.7 1011.6 0.0
24/10:30pm 25.2 28.2 21.3 79 2.6 W 7 9 4 5 1011.7 1011.6 0.0

Other formats

Comma delimited format used in spreadsheet applications
http://www.bom.gov.au/fwo/IDQ60801/IDQ60801.94268.axf

JavaScript Object Notation format (JSON) in row-major order
http://www.bom.gov.au/fwo/IDQ60801/IDQ60801.94268.json

Data quality

Most of these data are generated automatically and are frequently updated. Quality checks on data are not normally performed. It is possible for incorrect values to appear. Refer to information at About Latest Weather Observations and please check the disclaimer before using these data.